createdAt,value
2017-08-30T00:00:26.096Z,63.20
2017-08-30T00:02:53.143Z,62.90
2017-08-30T00:05:20.183Z,62.30
2017-08-30T00:07:47.251Z,62.00
2017-08-30T00:10:14.287Z,61.90
2017-08-30T00:12:41.315Z,61.90
2017-08-30T00:15:08.376Z,62.00
2017-08-30T00:17:35.395Z,62.80
2017-08-30T00:20:02.448Z,62.70
2017-08-30T00:22:29.514Z,63.10
2017-08-30T00:25:02.568Z,63.00
2017-08-30T00:27:29.646Z,63.50
2017-08-30T00:29:56.670Z,66.30
2017-08-30T00:32:23.683Z,65.70
2017-08-30T00:34:50.722Z,63.60
2017-08-30T00:37:17.785Z,62.70
2017-08-30T00:39:44.859Z,63.20
2017-08-30T00:42:11.871Z,63.80
2017-08-30T00:44:38.947Z,63.20
2017-08-30T00:47:05.967Z,62.90
2017-08-30T00:49:33.779Z,63.20
2017-08-30T00:52:00.834Z,63.10
2017-08-30T00:54:27.858Z,62.80
2017-08-30T00:56:54.903Z,62.40
2017-08-30T00:59:21.928Z,62.40
2017-08-30T01:01:49.777Z,62.70
2017-08-30T01:04:16.809Z,62.70
2017-08-30T01:06:43.852Z,62.80
2017-08-30T01:09:10.903Z,63.00
2017-08-30T01:11:37.918Z,64.90
2017-08-30T01:14:04.943Z,64.90
2017-08-30T01:16:31.992Z,65.60
2017-08-30T01:18:59.819Z,63.50
2017-08-30T01:21:26.848Z,63.40
2017-08-30T01:23:53.888Z,63.40
2017-08-30T01:26:20.947Z,63.00
2017-08-30T01:28:47.979Z,64.10
2017-08-30T01:31:15.048Z,68.30
2017-08-30T01:33:42.062Z,71.60
2017-08-30T01:36:09.096Z,70.80
2017-08-30T01:38:36.164Z,70.50
2017-08-30T01:41:03.183Z,67.10
2017-08-30T01:43:30.192Z,65.20
2017-08-30T01:45:57.271Z,64.10
2017-08-30T01:48:24.287Z,63.90
2017-08-30T01:50:51.331Z,63.90
2017-08-30T01:53:18.383Z,63.40
2017-08-30T01:55:45.439Z,64.10
2017-08-30T01:58:12.504Z,63.80
2017-08-30T02:00:39.530Z,63.40
2017-08-30T02:03:06.571Z,63.40
2017-08-30T02:05:33.635Z,63.30
2017-08-30T02:08:00.649Z,64.20
2017-08-30T02:10:27.728Z,64.00
2017-08-30T02:12:54.750Z,64.00
2017-08-30T02:15:21.786Z,63.70
2017-08-30T02:17:48.862Z,63.80
2017-08-30T02:20:15.876Z,63.90
2017-08-30T02:22:42.930Z,63.10
2017-08-30T02:25:09.958Z,62.90
2017-08-30T02:27:36.979Z,63.20
2017-08-30T02:30:04.034Z,63.40
2017-08-30T02:32:31.113Z,64.50
2017-08-30T02:34:58.151Z,64.90
2017-08-30T02:37:25.926Z,66.40
2017-08-30T02:39:53.050Z,66.30
2017-08-30T02:42:20.852Z,64.90
2017-08-30T02:44:47.903Z,64.90
2017-08-30T02:47:14.919Z,63.70
2017-08-30T02:49:41.992Z,64.10
2017-08-30T02:52:09.019Z,68.60
2017-08-30T02:54:36.799Z,72.00
2017-08-30T02:57:03.843Z,71.90
2017-08-30T02:59:30.878Z,72.00
2017-08-30T03:01:57.918Z,68.40
2017-08-30T03:04:24.938Z,65.00
2017-08-30T03:06:51.992Z,64.50
2017-08-30T03:09:19.011Z,64.30
2017-08-30T03:11:46.051Z,63.70
2017-08-30T03:14:13.119Z,63.40
2017-08-30T03:16:40.156Z,63.40
2017-08-30T03:19:07.188Z,63.40
2017-08-30T03:21:34.228Z,63.80
2017-08-30T03:24:01.281Z,63.70
2017-08-30T03:26:28.327Z,62.80
2017-08-30T03:28:55.371Z,62.60
2017-08-30T03:31:22.458Z,62.50
2017-08-30T03:33:49.491Z,62.70
2017-08-30T03:36:16.535Z,63.00
2017-08-30T03:38:43.579Z,62.90
2017-08-30T03:41:10.595Z,62.50
2017-08-30T03:43:37.615Z,62.60
2017-08-30T03:46:04.664Z,62.60
2017-08-30T03:48:31.699Z,63.00
2017-08-30T03:50:58.758Z,64.50
2017-08-30T03:53:25.781Z,65.40
2017-08-30T03:55:52.827Z,64.90
2017-08-30T03:58:19.871Z,63.60
2017-08-30T04:00:46.920Z,63.30
2017-08-30T04:03:13.937Z,63.70
2017-08-30T04:05:40.999Z,65.40
2017-08-30T04:08:08.023Z,68.20
2017-08-30T04:10:35.033Z,71.20
2017-08-30T04:13:02.121Z,69.60
2017-08-30T04:15:29.135Z,68.40
2017-08-30T04:17:56.167Z,66.20
2017-08-30T04:20:23.216Z,65.30
2017-08-30T04:22:51.605Z,64.60
2017-08-30T04:25:18.671Z,66.00
2017-08-30T04:27:46.030Z,65.30
2017-08-30T04:30:13.940Z,65.10
2017-08-30T04:32:41.496Z,65.10
2017-08-30T04:35:08.527Z,63.90
2017-08-30T04:37:35.807Z,66.50
2017-08-30T04:40:02.855Z,62.90
2017-08-30T04:42:29.928Z,61.80
2017-08-30T04:44:56.967Z,61.30
2017-08-30T04:47:24.019Z,61.10
2017-08-30T04:49:51.066Z,61.00
2017-08-30T04:52:18.095Z,60.90
2017-08-30T04:54:45.150Z,61.10
2017-08-30T04:57:12.199Z,61.20
2017-08-30T04:59:39.228Z,61.10
2017-08-30T05:02:06.268Z,61.20
2017-08-30T05:04:33.310Z,61.10
2017-08-30T05:07:00.350Z,61.00
2017-08-30T05:09:27.374Z,61.00
2017-08-30T05:11:54.423Z,61.00
2017-08-30T05:14:21.478Z,60.90
2017-08-30T05:16:48.490Z,60.90
2017-08-30T05:19:15.588Z,60.80
2017-08-30T05:21:42.618Z,60.90
2017-08-30T05:24:09.670Z,61.00
2017-08-30T05:26:36.692Z,61.40
2017-08-30T05:29:03.738Z,63.40
2017-08-30T05:31:30.784Z,63.10
2017-08-30T05:33:57.815Z,62.40
2017-08-30T05:36:24.890Z,62.00
2017-08-30T05:38:51.907Z,61.90
2017-08-30T05:41:18.941Z,61.90
2017-08-30T05:43:45.973Z,61.60
2017-08-30T05:46:13.771Z,61.60
2017-08-30T05:48:40.838Z,61.40
2017-08-30T05:51:07.887Z,62.40
2017-08-30T05:53:34.923Z,63.10
2017-08-30T05:56:02.003Z,63.10
2017-08-30T05:58:29.038Z,65.60
2017-08-30T06:00:56.093Z,69.90
2017-08-30T06:03:23.103Z,67.30
2017-08-30T06:05:50.161Z,65.50
2017-08-30T06:08:17.189Z,65.00
2017-08-30T06:10:44.214Z,64.70
2017-08-30T06:13:11.271Z,65.40
2017-08-30T06:15:38.366Z,64.90
2017-08-30T06:18:05.411Z,64.10
2017-08-30T06:20:32.501Z,63.50
2017-08-30T06:22:59.526Z,63.60
2017-08-30T06:25:26.556Z,63.80
2017-08-30T06:27:53.606Z,64.40
2017-08-30T06:30:20.685Z,63.50
2017-08-30T06:32:47.742Z,63.80
2017-08-30T06:35:14.787Z,63.80
2017-08-30T06:37:41.830Z,63.40
2017-08-30T06:40:08.850Z,62.90
2017-08-30T06:42:35.953Z,63.10
2017-08-30T06:45:02.981Z,63.10
2017-08-30T06:47:30.009Z,64.10
2017-08-30T06:49:57.075Z,63.90
2017-08-30T06:52:24.115Z,64.30
2017-08-30T06:54:51.150Z,63.60
2017-08-30T06:57:18.211Z,64.70
2017-08-30T06:59:46.097Z,64.50
2017-08-30T07:02:13.155Z,63.90
2017-08-30T07:04:40.182Z,64.30
2017-08-30T07:07:07.238Z,64.10
2017-08-30T07:09:35.044Z,64.50
2017-08-30T07:12:02.062Z,64.40
2017-08-30T07:14:29.114Z,65.20
2017-08-30T07:16:56.132Z,64.00
2017-08-30T07:19:23.167Z,63.60
2017-08-30T07:21:50.203Z,64.00
2017-08-30T07:24:17.224Z,64.00
2017-08-30T07:26:44.276Z,62.80
2017-08-30T07:29:11.290Z,63.40
2017-08-30T07:31:38.335Z,63.10
2017-08-30T07:34:06.145Z,63.10
2017-08-30T07:36:33.180Z,63.00
2017-08-30T07:39:00.232Z,63.10
2017-08-30T07:41:27.241Z,63.30
2017-08-30T07:43:54.300Z,63.80
2017-08-30T07:46:21.315Z,63.00
2017-08-30T07:48:48.378Z,63.30
2017-08-30T07:51:15.420Z,62.70
2017-08-30T07:53:42.471Z,63.80
2017-08-30T07:56:09.535Z,61.70
2017-08-30T07:58:36.574Z,62.00
2017-08-30T08:01:03.589Z,61.90
2017-08-30T08:03:30.644Z,62.30
2017-08-30T08:05:57.677Z,61.60
2017-08-30T08:08:24.746Z,61.50
2017-08-30T08:10:51.754Z,61.60
2017-08-30T08:13:18.770Z,61.30
2017-08-30T08:15:45.807Z,61.70
2017-08-30T08:18:12.848Z,61.70
2017-08-30T08:20:39.966Z,60.90
2017-08-30T08:23:07.002Z,61.40
2017-08-30T08:25:34.013Z,61.80
2017-08-30T08:28:01.838Z,61.20
2017-08-30T08:30:28.902Z,61.20
2017-08-30T08:32:55.962Z,60.80
2017-08-30T08:35:23.016Z,61.30
2017-08-30T08:37:50.067Z,60.60
2017-08-30T08:40:17.080Z,60.80
2017-08-30T08:42:44.128Z,61.00
2017-08-30T08:45:11.179Z,60.50
2017-08-30T08:47:38.243Z,60.50
2017-08-30T08:50:05.305Z,60.20
2017-08-30T08:52:32.361Z,60.30
2017-08-30T08:54:59.403Z,60.10
2017-08-30T08:57:26.455Z,60.90
2017-08-30T08:59:53.490Z,60.20
2017-08-30T09:02:20.535Z,60.50
2017-08-30T09:04:47.590Z,60.30
2017-08-30T09:07:14.650Z,59.00
2017-08-30T09:09:42.472Z,58.10
2017-08-30T09:12:09.510Z,58.00
2017-08-30T09:14:37.110Z,57.80
2017-08-30T09:17:04.128Z,59.40
2017-08-30T09:19:31.180Z,59.40
2017-08-30T09:21:58.215Z,59.80
2017-08-30T09:24:25.269Z,58.80
2017-08-30T09:26:52.329Z,57.20
2017-08-30T09:29:19.347Z,60.00
2017-08-30T09:31:46.402Z,58.70
2017-08-30T09:34:13.439Z,58.50
2017-08-30T09:36:40.444Z,59.40
2017-08-30T09:39:07.524Z,59.00
2017-08-30T09:41:35.429Z,58.60
2017-08-30T09:44:02.486Z,58.90
2017-08-30T09:46:29.519Z,58.10
2017-08-30T09:48:57.066Z,60.10
2017-08-30T09:51:24.128Z,58.90
2017-08-30T09:53:51.167Z,57.00
2017-08-30T09:56:18.220Z,57.40
2017-08-30T09:58:45.224Z,57.70
2017-08-30T10:01:12.260Z,57.60
2017-08-30T10:03:39.299Z,57.50
2017-08-30T10:06:06.359Z,57.20
2017-08-30T10:08:33.432Z,56.90
2017-08-30T10:11:00.454Z,59.30
2017-08-30T10:13:27.514Z,57.40
2017-08-30T10:15:54.544Z,58.80
2017-08-30T10:18:21.554Z,57.50
2017-08-30T10:20:48.603Z,56.90
2017-08-30T10:23:15.637Z,56.90
2017-08-30T10:25:42.666Z,55.60
2017-08-30T10:28:09.715Z,54.40
2017-08-30T10:30:36.788Z,53.80
2017-08-30T10:33:03.828Z,51.50
2017-08-30T10:35:30.910Z,52.60
2017-08-30T10:37:57.934Z,51.60
2017-08-30T10:40:24.960Z,51.20
2017-08-30T10:42:52.019Z,51.20
2017-08-30T10:45:19.079Z,51.10
2017-08-30T10:47:46.119Z,51.10
2017-08-30T10:50:13.139Z,50.90
2017-08-30T10:52:40.159Z,50.50
2017-08-30T10:55:07.218Z,50.20
2017-08-30T10:57:34.243Z,48.60
2017-08-30T11:00:01.280Z,49.10
2017-08-30T11:02:28.334Z,47.70
2017-08-30T11:04:55.369Z,47.10
2017-08-30T11:07:22.402Z,47.40
2017-08-30T11:09:49.470Z,47.40
2017-08-30T11:12:16.509Z,47.40
2017-08-30T11:14:43.582Z,46.80
2017-08-30T11:17:10.696Z,48.30
2017-08-30T11:19:37.718Z,47.20
2017-08-30T11:22:04.789Z,46.50
2017-08-30T11:24:31.798Z,47.90
2017-08-30T11:26:58.853Z,47.50
2017-08-30T11:29:25.908Z,47.70
2017-08-30T11:31:52.939Z,48.00
2017-08-30T11:34:19.981Z,47.10
2017-08-30T11:36:47.038Z,46.90
2017-08-30T11:39:14.071Z,47.00
2017-08-30T11:41:41.142Z,47.10
2017-08-30T11:44:08.227Z,47.10
2017-08-30T11:46:35.275Z,47.00
2017-08-30T11:49:02.285Z,47.60
2017-08-30T11:51:29.347Z,47.20
2017-08-30T11:53:56.387Z,48.00
2017-08-30T11:56:23.430Z,47.30
2017-08-30T11:58:51.207Z,48.30
2017-08-30T12:01:18.259Z,48.30
2017-08-30T12:03:45.277Z,46.90
2017-08-30T12:06:12.337Z,47.70
2017-08-30T12:08:39.372Z,47.50
2017-08-30T12:11:06.382Z,47.60
2017-08-30T12:13:33.449Z,47.50
2017-08-30T12:16:00.490Z,48.50
2017-08-30T12:18:28.079Z,48.40
2017-08-30T12:20:55.119Z,48.20
2017-08-30T12:23:22.177Z,47.90
2017-08-30T12:25:49.220Z,47.80
2017-08-30T12:28:16.244Z,48.20
2017-08-30T12:30:43.314Z,47.60
2017-08-30T12:33:10.332Z,48.00
2017-08-30T12:35:37.363Z,47.80
2017-08-30T12:38:10.269Z,48.00
2017-08-30T12:40:37.299Z,48.10
2017-08-30T12:43:04.337Z,47.80
2017-08-30T12:45:31.374Z,47.80
2017-08-30T12:47:58.415Z,48.10
2017-08-30T12:50:25.492Z,48.10
2017-08-30T12:52:52.511Z,48.20
2017-08-30T12:55:19.572Z,48.30
2017-08-30T12:57:46.595Z,48.00
2017-08-30T13:00:14.383Z,48.60
2017-08-30T13:02:41.448Z,48.40
2017-08-30T13:05:08.467Z,48.60
2017-08-30T13:07:35.498Z,48.70
2017-08-30T13:10:02.545Z,49.30
2017-08-30T13:12:29.568Z,49.30
2017-08-30T13:14:56.672Z,48.90
2017-08-30T13:17:23.707Z,47.40
2017-08-30T13:19:50.751Z,46.50
2017-08-30T13:22:17.794Z,44.30
2017-08-30T13:24:44.864Z,45.10
2017-08-30T13:27:11.906Z,45.50
2017-08-30T13:29:38.950Z,43.50
2017-08-30T13:32:05.995Z,44.90
2017-08-30T13:34:33.027Z,45.40
2017-08-30T13:37:00.062Z,44.70
2017-08-30T13:39:27.126Z,46.00
2017-08-30T13:41:54.164Z,43.80
2017-08-30T13:44:21.196Z,44.00
2017-08-30T13:46:48.247Z,43.90
2017-08-30T13:49:15.295Z,44.50
2017-08-30T13:51:42.350Z,43.90
2017-08-30T13:54:09.383Z,43.40
2017-08-30T13:56:36.404Z,44.60
2017-08-30T13:59:03.412Z,44.10
2017-08-30T14:01:30.481Z,44.70
2017-08-30T14:03:57.492Z,45.10
2017-08-30T14:06:24.559Z,45.10
2017-08-30T14:08:51.631Z,44.60
2017-08-30T14:11:18.692Z,44.30
2017-08-30T14:13:45.697Z,45.10
2017-08-30T14:16:12.766Z,43.80
2017-08-30T14:18:40.749Z,44.80
2017-08-30T14:21:07.802Z,45.70
2017-08-30T14:23:34.840Z,44.90
2017-08-30T14:26:01.888Z,45.00
2017-08-30T14:28:28.918Z,44.60
2017-08-30T14:30:55.967Z,45.10
2017-08-30T14:33:23.019Z,45.10
2017-08-30T14:35:50.081Z,43.80
2017-08-30T14:38:17.097Z,44.70
2017-08-30T14:40:44.379Z,44.60
2017-08-30T14:43:11.449Z,44.60
2017-08-30T14:45:38.470Z,43.80
2017-08-30T14:48:06.288Z,43.90
2017-08-30T14:50:33.359Z,44.00
2017-08-30T14:53:00.394Z,43.50
2017-08-30T14:55:27.466Z,43.60
2017-08-30T14:57:54.492Z,43.20
2017-08-30T15:00:21.534Z,43.20
2017-08-30T15:02:48.602Z,43.90
2017-08-30T15:05:15.637Z,42.30
2017-08-30T15:07:42.685Z,43.10
2017-08-30T15:10:09.798Z,43.10
2017-08-30T15:12:36.831Z,44.60
2017-08-30T15:15:03.875Z,43.50
2017-08-30T15:17:30.922Z,43.30
2017-08-30T15:19:58.842Z,44.10
2017-08-30T15:22:25.907Z,43.00
2017-08-30T15:24:52.975Z,43.50
2017-08-30T15:27:20.369Z,43.70
2017-08-30T15:29:47.388Z,43.60
2017-08-30T15:32:14.468Z,43.60
2017-08-30T15:34:41.489Z,43.90
2017-08-30T15:37:08.554Z,43.70
2017-08-30T15:39:36.014Z,43.90
2017-08-30T15:42:03.051Z,43.20
2017-08-30T15:44:30.119Z,43.10
2017-08-30T15:46:57.152Z,43.70
2017-08-30T15:49:24.210Z,43.70
2017-08-30T15:51:51.251Z,43.40
2017-08-30T15:54:18.305Z,43.20
2017-08-30T15:56:45.365Z,44.30
2017-08-30T15:59:12.398Z,44.50
2017-08-30T16:01:39.451Z,43.80
2017-08-30T16:04:06.484Z,42.20
2017-08-30T16:06:33.552Z,44.10
2017-08-30T16:09:00.585Z,44.30
2017-08-30T16:11:27.659Z,43.50
2017-08-30T16:13:54.735Z,43.80
2017-08-30T16:16:21.826Z,43.80
2017-08-30T16:18:49.384Z,43.60
2017-08-30T16:21:16.431Z,44.30
2017-08-30T16:23:43.489Z,44.50
2017-08-30T16:26:10.575Z,44.00
2017-08-30T16:28:37.598Z,44.20
2017-08-30T16:31:04.635Z,44.40
2017-08-30T16:33:31.682Z,45.30
2017-08-30T16:35:58.731Z,48.00
2017-08-30T16:38:25.760Z,49.50
2017-08-30T16:40:52.808Z,49.10
2017-08-30T16:43:19.845Z,49.10
2017-08-30T16:45:46.891Z,50.00
2017-08-30T16:48:13.924Z,49.70
2017-08-30T16:50:40.930Z,51.00
2017-08-30T16:53:08.005Z,52.30
2017-08-30T16:55:35.010Z,51.00
2017-08-30T16:58:02.092Z,51.90
2017-08-30T17:00:29.118Z,52.30
2017-08-30T17:02:56.209Z,53.00
2017-08-30T17:05:23.249Z,53.30
2017-08-30T17:07:50.259Z,54.90
2017-08-30T17:10:17.332Z,54.80
2017-08-30T17:25:44.396Z,52.40
2017-08-30T17:28:11.747Z,56.40
2017-08-30T17:30:38.826Z,56.60
2017-08-30T17:33:05.869Z,57.30
2017-08-30T17:35:33.688Z,57.40
2017-08-30T17:38:00.738Z,57.30
2017-08-30T17:40:27.793Z,56.50
2017-08-30T17:42:54.812Z,57.00
2017-08-30T17:45:21.854Z,58.00
2017-08-30T17:47:48.887Z,58.70
2017-08-30T17:50:15.940Z,59.50
2017-08-30T17:52:42.978Z,60.00
2017-08-30T17:55:10.078Z,59.80
2017-08-30T17:57:37.109Z,60.00
2017-08-30T18:00:04.141Z,60.10
2017-08-30T18:02:33.776Z,59.50
2017-08-30T18:05:00.800Z,59.60
2017-08-30T18:07:28.334Z,60.00
2017-08-30T18:09:56.017Z,60.20
2017-08-30T18:12:23.567Z,61.10
2017-08-30T18:14:50.639Z,61.60
2017-08-30T18:17:17.678Z,61.00
2017-08-30T18:19:44.743Z,61.30
2017-08-30T18:22:11.758Z,61.30
2017-08-30T18:24:38.809Z,61.80
2017-08-30T18:27:05.846Z,61.60
2017-08-30T18:29:32.924Z,61.80
2017-08-30T18:32:00.075Z,62.20
2017-08-30T18:34:27.091Z,62.70
2017-08-30T18:36:54.165Z,62.80
2017-08-30T18:39:21.203Z,63.50
2017-08-30T18:41:48.233Z,63.90
2017-08-30T18:44:16.034Z,64.00
2017-08-30T18:46:43.100Z,64.00
2017-08-30T18:49:10.114Z,64.40
2017-08-30T18:51:37.139Z,64.30
2017-08-30T18:54:04.198Z,64.60
2017-08-30T18:56:31.260Z,64.00
2017-08-30T18:58:58.314Z,63.80
2017-08-30T19:01:25.372Z,63.40
2017-08-30T19:03:52.390Z,63.20
2017-08-30T19:06:20.246Z,62.80
2017-08-30T19:08:47.264Z,62.90
2017-08-30T19:11:14.332Z,62.30
2017-08-30T19:13:41.383Z,62.50
2017-08-30T19:16:08.435Z,63.40
2017-08-30T19:18:35.487Z,63.80
2017-08-30T19:21:02.574Z,63.60
2017-08-30T19:23:29.626Z,63.40
2017-08-30T19:25:56.657Z,64.30
2017-08-30T19:28:23.719Z,64.70
2017-08-30T19:30:50.779Z,64.70
2017-08-30T19:33:17.803Z,64.30
2017-08-30T19:35:44.856Z,64.30
2017-08-30T19:38:11.911Z,64.40
2017-08-30T19:40:38.967Z,64.30
2017-08-30T19:43:06.007Z,64.70
2017-08-30T19:45:33.041Z,65.00
2017-08-30T19:48:00.100Z,65.40
2017-08-30T19:50:27.121Z,66.00
2017-08-30T19:52:54.166Z,66.60
2017-08-30T19:55:21.228Z,66.90
2017-08-30T19:57:48.254Z,67.10
2017-08-30T20:00:15.316Z,67.00
2017-08-30T20:02:42.371Z,66.70
2017-08-30T20:05:09.391Z,66.40
2017-08-30T20:07:36.433Z,66.30
2017-08-30T20:10:03.443Z,65.80
2017-08-30T20:12:30.508Z,66.50
2017-08-30T20:14:58.248Z,66.90
2017-08-30T20:17:25.821Z,67.00
2017-08-30T20:19:52.911Z,67.10
2017-08-30T20:22:19.940Z,66.90
2017-08-30T20:24:46.985Z,66.40
2017-08-30T20:27:14.046Z,66.50
2017-08-30T20:29:41.095Z,66.30
2017-08-30T20:32:08.148Z,66.30
2017-08-30T20:34:35.168Z,66.50
2017-08-30T20:37:02.418Z,66.60
2017-08-30T20:39:29.518Z,67.30
2017-08-30T20:41:56.535Z,67.10
2017-08-30T20:44:23.583Z,67.10
2017-08-30T20:46:50.648Z,67.80
2017-08-30T20:49:19.531Z,67.40
2017-08-30T20:51:46.938Z,68.40
2017-08-30T20:54:13.978Z,67.80
2017-08-30T20:56:41.016Z,68.60
2017-08-30T20:59:08.588Z,69.20
2017-08-30T21:01:35.707Z,69.00
2017-08-30T21:04:02.766Z,69.00
2017-08-30T21:06:29.799Z,69.30
2017-08-30T21:08:56.861Z,69.60
2017-08-30T21:11:23.879Z,69.40
2017-08-30T21:13:50.933Z,69.00
2017-08-30T21:16:17.963Z,68.70
2017-08-30T21:18:45.003Z,68.60
2017-08-30T21:21:12.044Z,68.30
2017-08-30T21:23:39.082Z,69.30
2017-08-30T21:26:06.104Z,68.70
2017-08-30T21:28:33.169Z,68.90
2017-08-30T21:31:00.199Z,69.10
2017-08-30T21:33:27.220Z,68.70
2017-08-30T21:35:54.278Z,68.30
2017-08-30T21:38:21.331Z,67.90
2017-08-30T21:40:49.132Z,70.60
2017-08-30T21:43:16.164Z,70.40
2017-08-30T21:45:43.981Z,93.30
2017-08-30T21:48:11.006Z,93.20
2017-08-30T21:50:38.063Z,93.70
2017-08-30T21:53:05.112Z,93.80
2017-08-30T21:55:32.146Z,93.90
2017-08-30T21:57:59.218Z,93.90
2017-08-30T22:00:26.249Z,93.80
2017-08-30T22:02:53.283Z,93.80
2017-08-30T22:05:20.344Z,93.90
2017-08-30T22:07:47.370Z,93.80
2017-08-30T22:10:14.411Z,93.80
2017-08-30T22:12:41.445Z,93.80
2017-08-30T22:15:08.507Z,93.70
2017-08-30T22:17:36.332Z,93.50
2017-08-30T22:20:03.381Z,93.50
2017-08-30T22:22:30.447Z,93.40
2017-08-30T22:24:57.528Z,93.40
2017-08-30T22:27:24.560Z,93.40
2017-08-30T22:29:51.578Z,93.70
2017-08-30T22:32:18.635Z,93.70
2017-08-30T22:34:45.709Z,93.60
2017-08-30T22:37:12.782Z,93.60
2017-08-30T22:39:39.828Z,93.60
2017-08-30T22:42:06.888Z,93.60
2017-08-30T22:44:33.900Z,93.60
2017-08-30T22:47:00.962Z,93.70
2017-08-30T22:49:28.019Z,93.70
2017-08-30T22:51:55.080Z,93.70
2017-08-30T22:54:22.127Z,93.60
2017-08-30T22:56:49.171Z,93.60
2017-08-30T22:59:16.220Z,93.60
2017-08-30T23:01:43.234Z,93.60
2017-08-30T23:04:10.300Z,93.60
2017-08-30T23:06:37.315Z,93.60
2017-08-30T23:09:04.350Z,93.50
2017-08-30T23:11:31.395Z,93.50
2017-08-30T23:13:58.440Z,93.40
2017-08-30T23:16:25.502Z,93.50
2017-08-30T23:18:52.527Z,93.40
2017-08-30T23:21:19.575Z,93.50
2017-08-30T23:23:46.618Z,93.40
2017-08-30T23:26:13.635Z,93.70
2017-08-30T23:28:40.695Z,93.50
2017-08-30T23:31:07.758Z,93.60
2017-08-30T23:33:34.817Z,93.70
2017-08-30T23:36:01.871Z,93.60
2017-08-30T23:38:28.891Z,93.60
2017-08-30T23:40:55.918Z,93.50
2017-08-30T23:43:22.951Z,93.60
2017-08-30T23:45:49.966Z,93.60
2017-08-30T23:48:17.022Z,93.60
2017-08-30T23:50:44.067Z,93.50
2017-08-30T23:53:11.114Z,93.50
2017-08-30T23:55:38.166Z,93.50
2017-08-30T23:58:05.189Z,93.40
